Time;durP1;ratioP1;P1;durP2;ratioP2;P2;SDS_P1;SDS_P2;PMS_P1;PMS_P2;Temp;Humidity;BMP_temperature;BMP_pressure;BME280_temperature;BME280_humidity;BME280_pressure;Samples;Min_cycle;Max_cycle;Signal;HPM_P1;HPM_P2
2022/07/08 00:00:17;;;;;;;13.90;2.95;;;;;;;;;;5034697;27;99478;-72
2022/07/08 00:02:44;;;;;;;8.95;1.92;;;;;;;;;;5035532;27;100015;-72
2022/07/08 00:05:10;;;;;;;13.75;2.25;;;;;;;;;;5031581;27;100976;-72
2022/07/08 00:07:37;;;;;;;11.35;2.67;;;;;;;;;;5030108;27;100181;-72
2022/07/08 00:10:03;;;;;;;7.40;1.95;;;;;;;;;;5027072;27;99142;-72
2022/07/08 00:12:30;;;;;;;8.95;2.58;;;;;;;;;;5033532;27;100128;-72
2022/07/08 00:14:56;;;;;;;9.45;1.98;;;;;;;;;;5031473;27;98985;-72
2022/07/08 00:17:22;;;;;;;7.05;2.08;;;;;;;;;;5033258;27;99906;-72
2022/07/08 00:19:49;;;;;;;10.65;2.35;;;;;;;;;;5026260;27;99208;-72
2022/07/08 00:22:15;;;;;;;7.50;2.45;;;;;;;;;;5032415;27;97903;-72
2022/07/08 00:24:41;;;;;;;10.57;2.55;;;;;;;;;;5025219;27;99236;-72
2022/07/08 00:27:08;;;;;;;11.88;2.13;;;;;;;;;;5030998;27;99050;-72
2022/07/08 00:29:34;;;;;;;14.35;2.22;;;;;;;;;;5034899;27;99878;-72
2022/07/08 00:32:00;;;;;;;8.70;2.03;;;;;;;;;;5033526;27;99612;-72
2022/07/08 00:34:27;;;;;;;9.52;1.67;;;;;;;;;;5037676;27;99145;-72
2022/07/08 00:36:53;;;;;;;8.38;2.20;;;;;;;;;;5031629;27;99817;-72
2022/07/08 00:39:20;;;;;;;7.22;1.98;;;;;;;;;;5031255;27;99827;-72
2022/07/08 00:41:46;;;;;;;7.22;1.88;;;;;;;;;;5029394;27;100359;-72
2022/07/08 00:44:12;;;;;;;7.90;1.92;;;;;;;;;;5031952;27;100214;-72
2022/07/08 00:46:39;;;;;;;5.40;1.70;;;;;;;;;;5028256;27;98699;-72
2022/07/08 00:49:05;;;;;;;10.68;2.13;;;;;;;;;;5037275;27;99571;-72
2022/07/08 00:51:37;;;;;;;9.18;1.98;;;;;;;;;;5036525;27;100022;-73
2022/07/08 00:54:03;;;;;;;7.00;2.40;;;;;;;;;;5032221;27;99303;-72
2022/07/08 00:56:30;;;;;;;7.78;1.80;;;;;;;;;;5030125;27;100920;-72
2022/07/08 00:58:56;;;;;;;6.40;1.88;;;;;;;;;;5031958;27;100300;-72
2022/07/08 01:01:23;;;;;;;7.55;2.08;;;;;;;;;;5032696;27;100574;-72
2022/07/08 01:03:49;;;;;;;8.35;2.13;;;;;;;;;;5037672;27;99885;-72
2022/07/08 01:06:16;;;;;;;9.55;3.00;;;;;;;;;;5036445;27;100422;-72
2022/07/08 01:08:43;;;;;;;6.18;2.05;;;;;;;;;;5028635;27;99324;-72
2022/07/08 01:11:10;;;;;;;11.13;2.10;;;;;;;;;;5032401;27;98466;-72
2022/07/08 01:13:37;;;;;;;7.60;2.25;;;;;;;;;;5029730;27;99727;-72
2022/07/08 01:16:04;;;;;;;13.70;2.63;;;;;;;;;;5028475;27;99163;-72
2022/07/08 01:18:31;;;;;;;8.52;2.13;;;;;;;;;;5030379;27;100080;-72
2022/07/08 01:20:59;;;;;;;12.57;2.92;;;;;;;;;;5030026;27;98635;-72
2022/07/08 01:23:25;;;;;;;8.43;2.22;;;;;;;;;;5026234;27;99191;-72
2022/07/08 01:25:53;;;;;;;8.73;2.28;;;;;;;;;;5028023;27;99655;-72
2022/07/08 01:28:19;;;;;;;13.43;2.28;;;;;;;;;;5031920;27;98624;-72
2022/07/08 01:30:45;;;;;;;8.20;1.63;;;;;;;;;;5029041;27;100677;-72
2022/07/08 01:33:12;;;;;;;9.20;2.20;;;;;;;;;;5031239;27;98624;-72
2022/07/08 01:35:38;;;;;;;15.15;2.55;;;;;;;;;;5028696;27;99148;-72
2022/07/08 01:38:05;;;;;;;8.80;2.10;;;;;;;;;;5034156;27;100696;-72
2022/07/08 01:40:31;;;;;;;13.35;1.95;;;;;;;;;;5029919;27;99198;-72
2022/07/08 01:42:57;;;;;;;7.45;2.05;;;;;;;;;;5026207;27;100027;-72
2022/07/08 01:45:24;;;;;;;9.70;2.28;;;;;;;;;;5029564;27;100403;-72
2022/07/08 01:47:50;;;;;;;14.10;2.33;;;;;;;;;;5038953;27;98690;-72
2022/07/08 01:50:16;;;;;;;11.30;2.72;;;;;;;;;;5031395;27;100544;-72
2022/07/08 01:52:43;;;;;;;7.07;2.00;;;;;;;;;;5038056;27;98703;-72
2022/07/08 01:55:09;;;;;;;10.25;2.85;;;;;;;;;;5037828;27;100171;-72
2022/07/08 01:57:36;;;;;;;10.75;2.28;;;;;;;;;;5036236;27;100172;-72
2022/07/08 02:00:03;;;;;;;7.55;1.95;;;;;;;;;;5036065;27;98799;-72
2022/07/08 02:02:36;;;;;;;9.88;2.30;;;;;;;;;;5029348;27;100841;-72
2022/07/08 02:05:02;;;;;;;9.48;2.50;;;;;;;;;;5037626;27;100446;-73
2022/07/08 02:07:31;;;;;;;12.05;2.35;;;;;;;;;;5035606;27;99336;-72
2022/07/08 02:09:57;;;;;;;4.30;1.88;;;;;;;;;;5036082;27;101045;-72
2022/07/08 02:12:24;;;;;;;9.35;2.60;;;;;;;;;;5028120;27;99980;-72
2022/07/08 02:15:02;;;;;;;18.40;2.58;;;;;;;;;;5033919;27;99546;-72
2022/07/08 02:17:30;;;;;;;10.88;2.47;;;;;;;;;;5035855;27;99980;-72
2022/07/08 02:19:56;;;;;;;15.13;2.65;;;;;;;;;;5028988;27;100362;-72
2022/07/08 02:22:23;;;;;;;12.00;2.50;;;;;;;;;;5038370;27;100368;-72
2022/07/08 02:24:49;;;;;;;13.25;2.67;;;;;;;;;;5032909;27;99443;-72
2022/07/08 02:27:16;;;;;;;10.45;2.42;;;;;;;;;;5039490;27;98638;-72
2022/07/08 02:29:42;;;;;;;16.13;2.97;;;;;;;;;;5038765;27;99118;-72
2022/07/08 02:32:09;;;;;;;5.68;2.47;;;;;;;;;;5033249;27;100628;-72
2022/07/08 02:34:35;;;;;;;7.78;2.17;;;;;;;;;;5032997;27;100225;-72
2022/07/08 02:37:02;;;;;;;9.18;2.40;;;;;;;;;;5035129;27;100151;-72
2022/07/08 02:39:28;;;;;;;11.45;2.60;;;;;;;;;;5031192;27;100941;-72
2022/07/08 02:41:54;;;;;;;8.70;2.35;;;;;;;;;;5033001;27;99996;-72
2022/07/08 02:44:21;;;;;;;11.15;2.60;;;;;;;;;;5028585;27;100163;-72
2022/07/08 02:46:47;;;;;;;7.80;2.38;;;;;;;;;;5033795;27;100709;-72
2022/07/08 02:49:14;;;;;;;15.95;3.05;;;;;;;;;;5032959;27;101328;-72
2022/07/08 02:51:40;;;;;;;9.45;2.33;;;;;;;;;;5033440;27;100697;-72
2022/07/08 02:54:07;;;;;;;10.57;2.38;;;;;;;;;;5035940;27;99337;-72
2022/07/08 02:56:34;;;;;;;8.30;2.33;;;;;;;;;;5032372;27;100869;-72
2022/07/08 02:59:01;;;;;;;10.05;2.88;;;;;;;;;;5032087;27;98622;-72
2022/07/08 03:01:27;;;;;;;7.28;2.30;;;;;;;;;;5031001;27;101107;-72
2022/07/08 03:03:54;;;;;;;17.30;3.20;;;;;;;;;;5030556;27;100427;-72
2022/07/08 03:06:20;;;;;;;10.13;3.25;;;;;;;;;;5034114;27;98616;-72
2022/07/08 03:08:47;;;;;;;13.23;3.20;;;;;;;;;;5029203;27;99065;-72
2022/07/08 03:11:13;;;;;;;13.25;3.50;;;;;;;;;;5031559;27;100713;-72
2022/07/08 03:13:40;;;;;;;14.70;3.15;;;;;;;;;;5032671;27;99277;-72
2022/07/08 03:16:06;;;;;;;9.57;3.53;;;;;;;;;;5033066;27;99231;-72
2022/07/08 03:18:33;;;;;;;11.93;3.60;;;;;;;;;;5031439;27;98729;-72
2022/07/08 03:21:00;;;;;;;11.10;2.85;;;;;;;;;;5036995;27;100272;-72
2022/07/08 03:23:26;;;;;;;9.25;3.10;;;;;;;;;;5029288;27;100706;-72
2022/07/08 03:25:52;;;;;;;15.70;2.83;;;;;;;;;;5030977;27;100205;-72
2022/07/08 03:28:19;;;;;;;9.10;2.88;;;;;;;;;;5032353;27;100092;-72
2022/07/08 03:30:45;;;;;;;17.33;2.92;;;;;;;;;;5032109;27;100518;-72
2022/07/08 03:33:11;;;;;;;8.05;2.95;;;;;;;;;;5027375;27;99372;-72
2022/07/08 03:35:38;;;;;;;12.20;3.63;;;;;;;;;;5032312;27;100157;-72
2022/07/08 03:38:04;;;;;;;10.15;3.00;;;;;;;;;;5035165;27;99533;-72
2022/07/08 03:43:21;;;;;;;17.67;4.25;;;;;;;;;;5034139;27;100535;-72
2022/07/08 03:45:48;;;;;;;8.45;2.85;;;;;;;;;;5031019;27;99485;-72
2022/07/08 03:48:14;;;;;;;14.18;3.75;;;;;;;;;;5032385;27;100094;-72
2022/07/08 03:50:41;;;;;;;13.93;3.15;;;;;;;;;;5026591;27;101097;-72
2022/07/08 03:53:07;;;;;;;8.32;2.45;;;;;;;;;;5028775;27;101255;-72
2022/07/08 03:55:33;;;;;;;15.85;2.80;;;;;;;;;;5027114;27;99968;-72
2022/07/08 03:58:00;;;;;;;16.20;2.92;;;;;;;;;;5029479;27;100289;-72
2022/07/08 04:00:26;;;;;;;8.85;2.38;;;;;;;;;;5029597;27;100078;-72
2022/07/08 04:02:52;;;;;;;13.23;3.17;;;;;;;;;;5036581;27;99562;-72
2022/07/08 04:05:19;;;;;;;11.15;2.95;;;;;;;;;;5026640;27;100872;-72
2022/07/08 04:07:45;;;;;;;17.88;4.32;;;;;;;;;;5036312;27;99838;-72
2022/07/08 04:10:15;;;;;;;17.30;3.10;;;;;;;;;;5032098;27;100229;-72
2022/07/08 04:12:41;;;;;;;12.80;2.75;;;;;;;;;;5036170;27;100875;-72
2022/07/08 04:15:08;;;;;;;9.25;2.75;;;;;;;;;;5028725;27;99119;-72
2022/07/08 04:17:34;;;;;;;13.43;2.90;;;;;;;;;;5030393;27;100247;-72
2022/07/08 04:20:01;;;;;;;18.42;3.05;;;;;;;;;;5029093;27;100252;-72
2022/07/08 04:22:27;;;;;;;14.75;2.72;;;;;;;;;;5027684;27;101334;-72
2022/07/08 04:24:54;;;;;;;15.82;2.42;;;;;;;;;;5028480;27;99060;-72
2022/07/08 04:27:20;;;;;;;9.45;3.28;;;;;;;;;;5027800;27;100231;-72
2022/07/08 04:29:46;;;;;;;16.13;2.83;;;;;;;;;;5025609;27;99621;-72
2022/07/08 04:32:13;;;;;;;12.52;2.50;;;;;;;;;;5027917;27;100022;-72
2022/07/08 04:34:39;;;;;;;10.52;2.70;;;;;;;;;;5029202;27;99395;-73
2022/07/08 04:37:05;;;;;;;11.18;2.28;;;;;;;;;;5030269;27;100783;-72
2022/07/08 04:39:32;;;;;;;14.52;2.33;;;;;;;;;;5025365;27;98675;-72
2022/07/08 04:41:58;;;;;;;16.63;3.40;;;;;;;;;;5033832;27;100637;-72
2022/07/08 04:44:24;;;;;;;13.10;2.72;;;;;;;;;;5028497;27;100567;-73
2022/07/08 04:46:51;;;;;;;12.93;2.55;;;;;;;;;;5029122;27;101661;-73
2022/07/08 04:49:17;;;;;;;6.90;2.67;;;;;;;;;;5028185;27;100684;-74
2022/07/08 04:51:43;;;;;;;10.27;3.17;;;;;;;;;;5032653;27;98290;-73
2022/07/08 04:54:10;;;;;;;12.52;3.00;;;;;;;;;;5031559;27;98543;-73
2022/07/08 04:56:36;;;;;;;9.18;2.70;;;;;;;;;;5029383;27;99368;-73
2022/07/08 04:59:02;;;;;;;12.50;2.83;;;;;;;;;;5031837;27;100184;-73
2022/07/08 05:01:29;;;;;;;13.00;2.80;;;;;;;;;;5025994;27;100810;-73
2022/07/08 05:03:55;;;;;;;12.85;2.63;;;;;;;;;;5035155;27;99498;-72
2022/07/08 05:06:22;;;;;;;13.90;2.95;;;;;;;;;;5031558;27;100128;-73
2022/07/08 05:08:49;;;;;;;9.63;2.83;;;;;;;;;;5028102;27;99412;-72
2022/07/08 05:11:15;;;;;;;12.77;2.97;;;;;;;;;;5029256;27;100368;-73
2022/07/08 05:13:42;;;;;;;13.35;2.83;;;;;;;;;;5031440;27;100337;-73
2022/07/08 05:16:08;;;;;;;15.07;3.38;;;;;;;;;;5023545;27;100509;-73
2022/07/08 05:18:34;;;;;;;10.50;3.17;;;;;;;;;;5026311;27;100216;-73
2022/07/08 05:21:01;;;;;;;14.68;2.53;;;;;;;;;;5028330;27;100135;-72
2022/07/08 05:23:27;;;;;;;11.23;2.95;;;;;;;;;;5029454;27;101823;-73
2022/07/08 05:25:53;;;;;;;12.43;2.72;;;;;;;;;;5038338;27;98958;-73
2022/07/08 05:28:20;;;;;;;16.17;2.67;;;;;;;;;;5030725;27;100081;-73
2022/07/08 05:30:46;;;;;;;13.82;2.58;;;;;;;;;;5029962;27;98627;-73
2022/07/08 05:33:13;;;;;;;13.88;3.40;;;;;;;;;;5035008;27;100203;-73
2022/07/08 05:35:39;;;;;;;14.30;2.55;;;;;;;;;;5028576;27;99927;-73
2022/07/08 05:38:05;;;;;;;12.63;2.67;;;;;;;;;;5035305;27;98623;-73
2022/07/08 05:40:32;;;;;;;8.88;2.70;;;;;;;;;;5033409;27;99115;-73
2022/07/08 05:42:58;;;;;;;11.05;2.85;;;;;;;;;;5035545;27;99657;-73
2022/07/08 05:45:25;;;;;;;8.27;2.60;;;;;;;;;;5033514;27;101710;-73
2022/07/08 05:47:51;;;;;;;11.65;2.78;;;;;;;;;;5040571;27;102057;-74
2022/07/08 05:50:18;;;;;;;11.82;2.97;;;;;;;;;;5034159;27;100169;-72
2022/07/08 05:52:44;;;;;;;12.32;2.78;;;;;;;;;;5033670;27;99994;-73
2022/07/08 05:55:10;;;;;;;11.23;2.88;;;;;;;;;;5034836;27;99500;-73
2022/07/08 05:57:37;;;;;;;17.98;3.22;;;;;;;;;;5034077;27;98679;-72
2022/07/08 06:00:03;;;;;;;13.73;2.58;;;;;;;;;;5029586;27;99328;-72
2022/07/08 06:02:37;;;;;;;16.38;3.15;;;;;;;;;;5032590;27;101991;-72
2022/07/08 06:05:04;;;;;;;13.45;2.88;;;;;;;;;;5031592;27;97836;-73
2022/07/08 06:07:32;;;;;;;11.35;3.50;;;;;;;;;;5034982;27;100356;-70
2022/07/08 06:09:59;;;;;;;15.93;3.13;;;;;;;;;;5034010;27;99365;-70
2022/07/08 06:12:25;;;;;;;18.70;2.90;;;;;;;;;;5029998;27;99665;-70
2022/07/08 06:14:52;;;;;;;7.18;2.13;;;;;;;;;;5038209;27;99593;-70
2022/07/08 06:17:18;;;;;;;16.02;3.85;;;;;;;;;;5030704;27;99481;-71
2022/07/08 06:19:45;;;;;;;13.73;2.40;;;;;;;;;;5030823;27;99306;-72
2022/07/08 06:22:11;;;;;;;10.77;2.60;;;;;;;;;;5034378;27;98512;-70
2022/07/08 06:24:39;;;;;;;15.68;3.17;;;;;;;;;;5029764;27;99056;-70
2022/07/08 06:27:06;;;;;;;8.85;2.75;;;;;;;;;;5032180;27;98604;-70
2022/07/08 06:29:32;;;;;;;11.45;3.03;;;;;;;;;;5034009;27;98612;-70
2022/07/08 06:31:59;;;;;;;12.02;3.22;;;;;;;;;;5031127;27;99778;-70
2022/07/08 06:34:26;;;;;;;9.52;2.63;;;;;;;;;;5029879;27;99286;-70
2022/07/08 06:36:52;;;;;;;11.90;2.58;;;;;;;;;;5031156;27;100162;-71
2022/07/08 06:39:18;;;;;;;9.00;2.25;;;;;;;;;;5030333;27;99895;-71
2022/07/08 06:41:45;;;;;;;12.15;2.72;;;;;;;;;;5031002;27;100170;-71
2022/07/08 06:44:11;;;;;;;18.40;2.95;;;;;;;;;;5038528;27;100384;-71
2022/07/08 06:46:37;;;;;;;15.68;2.72;;;;;;;;;;5030146;27;99311;-71
2022/07/08 06:49:04;;;;;;;20.05;3.75;;;;;;;;;;5032454;27;100338;-71
2022/07/08 06:51:30;;;;;;;9.23;2.60;;;;;;;;;;5033085;27;100656;-71
2022/07/08 06:56:42;;;;;;;10.90;2.92;;;;;;;;;;5035238;27;98511;-72
2022/07/08 06:59:08;;;;;;;9.82;2.65;;;;;;;;;;5040305;27;99197;-71
2022/07/08 07:01:35;;;;;;;12.75;2.90;;;;;;;;;;5035196;27;100312;-72
2022/07/08 07:04:01;;;;;;;13.52;2.55;;;;;;;;;;5030509;27;98525;-73
2022/07/08 07:06:28;;;;;;;11.10;3.05;;;;;;;;;;5029276;27;99148;-76
2022/07/08 07:08:54;;;;;;;12.98;3.05;;;;;;;;;;5043659;27;99528;-75
2022/07/08 07:11:21;;;;;;;11.93;3.53;;;;;;;;;;5030988;27;98640;-71
2022/07/08 07:13:47;;;;;;;8.05;2.50;;;;;;;;;;5031909;27;99991;-72
2022/07/08 07:16:14;;;;;;;13.32;3.08;;;;;;;;;;5029838;27;98613;-71
2022/07/08 07:18:40;;;;;;;16.90;3.25;;;;;;;;;;5030357;27;99236;-71
2022/07/08 07:21:07;;;;;;;15.95;2.80;;;;;;;;;;5031756;27;99358;-71
2022/07/08 07:23:33;;;;;;;18.73;3.25;;;;;;;;;;5030928;27;98953;-71
2022/07/08 07:25:59;;;;;;;15.13;3.15;;;;;;;;;;5029493;27;100409;-71
2022/07/08 07:28:26;;;;;;;9.15;2.63;;;;;;;;;;5028378;27;99360;-71
2022/07/08 07:30:53;;;;;;;11.77;2.67;;;;;;;;;;5029925;27;98560;-71
2022/07/08 07:33:19;;;;;;;8.15;2.75;;;;;;;;;;5029735;27;99172;-71
2022/07/08 07:35:45;;;;;;;7.40;1.95;;;;;;;;;;5031746;27;99308;-72
2022/07/08 07:38:12;;;;;;;16.60;3.15;;;;;;;;;;5030542;27;99954;-71
2022/07/08 07:40:38;;;;;;;13.90;3.40;;;;;;;;;;5029071;27;99519;-71
2022/07/08 07:43:04;;;;;;;12.25;3.05;;;;;;;;;;5036009;27;98100;-71
2022/07/08 07:45:31;;;;;;;11.88;2.63;;;;;;;;;;5031404;27;99403;-71
2022/07/08 07:47:57;;;;;;;12.38;2.67;;;;;;;;;;5038099;27;99521;-71
2022/07/08 07:50:25;;;;;;;12.95;2.95;;;;;;;;;;5038411;27;99308;-71
2022/07/08 07:52:52;;;;;;;14.80;2.88;;;;;;;;;;5029990;27;100672;-71
2022/07/08 07:55:19;;;;;;;12.18;2.70;;;;;;;;;;5029859;27;100188;-71
2022/07/08 07:57:47;;;;;;;7.15;2.13;;;;;;;;;;5040479;27;98559;-72
2022/07/08 08:00:15;;;;;;;9.65;2.70;;;;;;;;;;5029945;27;100426;-72
2022/07/08 08:02:41;;;;;;;9.23;2.53;;;;;;;;;;5041456;27;98492;-69
2022/07/08 08:05:09;;;;;;;11.73;2.90;;;;;;;;;;5041247;27;100371;-72
2022/07/08 08:07:37;;;;;;;12.07;2.55;;;;;;;;;;5039479;27;100383;-72
2022/07/08 08:10:03;;;;;;;15.20;2.85;;;;;;;;;;5037427;27;98770;-72
2022/07/08 08:12:30;;;;;;;9.48;3.03;;;;;;;;;;5038731;27;100154;-72
2022/07/08 08:14:56;;;;;;;13.27;2.88;;;;;;;;;;5029132;27;100763;-72
2022/07/08 08:17:22;;;;;;;12.32;3.33;;;;;;;;;;5032590;27;99472;-72
2022/07/08 08:19:49;;;;;;;7.13;2.58;;;;;;;;;;5041106;27;100442;-72
2022/07/08 08:22:15;;;;;;;8.48;2.47;;;;;;;;;;5049992;27;98563;-72
2022/07/08 08:24:42;;;;;;;12.52;2.80;;;;;;;;;;5045995;27;99989;-72
2022/07/08 08:27:09;;;;;;;5.43;2.38;;;;;;;;;;5029663;27;100258;-74
2022/07/08 08:29:35;;;;;;;8.60;2.35;;;;;;;;;;5029518;27;98552;-72
2022/07/08 08:32:01;;;;;;;9.35;2.22;;;;;;;;;;5029572;27;100122;-72
2022/07/08 08:34:28;;;;;;;8.68;2.65;;;;;;;;;;5037714;27;100124;-70
2022/07/08 08:36:55;;;;;;;10.10;2.13;;;;;;;;;;5036635;27;98588;-71
2022/07/08 08:39:22;;;;;;;7.53;2.13;;;;;;;;;;5030302;27;99760;-72
2022/07/08 08:41:48;;;;;;;8.50;2.47;;;;;;;;;;5043744;27;100020;-71
2022/07/08 08:44:15;;;;;;;15.55;3.30;;;;;;;;;;5044287;27;101707;-72
2022/07/08 08:46:43;;;;;;;6.80;2.40;;;;;;;;;;5029904;27;100459;-72
2022/07/08 08:49:10;;;;;;;11.70;2.83;;;;;;;;;;5042842;27;98598;-72
2022/07/08 08:51:37;;;;;;;10.88;2.70;;;;;;;;;;5031680;27;99999;-72
2022/07/08 08:54:05;;;;;;;13.55;3.28;;;;;;;;;;5028349;27;100607;-71
2022/07/08 08:56:32;;;;;;;13.80;3.00;;;;;;;;;;5036668;27;97825;-72
2022/07/08 08:58:59;;;;;;;12.05;3.20;;;;;;;;;;5028530;27;99476;-72
2022/07/08 09:01:28;;;;;;;8.85;2.40;;;;;;;;;;5047167;27;100263;-72
2022/07/08 09:03:57;;;;;;;11.73;2.55;;;;;;;;;;5048389;27;99801;-73
2022/07/08 09:06:23;;;;;;;8.00;2.13;;;;;;;;;;5036409;27;100473;-73
2022/07/08 09:08:50;;;;;;;10.30;2.58;;;;;;;;;;5037145;27;98608;-72
2022/07/08 09:11:17;;;;;;;11.23;2.90;;;;;;;;;;5032314;27;100036;-72
2022/07/08 09:13:44;;;;;;;11.82;3.03;;;;;;;;;;5046475;27;100270;-71
2022/07/08 09:16:10;;;;;;;11.38;2.75;;;;;;;;;;5029400;27;100140;-70
2022/07/08 09:18:40;;;;;;;7.80;2.20;;;;;;;;;;5028621;27;99069;-71
2022/07/08 09:21:07;;;;;;;7.18;2.58;;;;;;;;;;5028607;27;99558;-71
2022/07/08 09:23:37;;;;;;;8.40;2.25;;;;;;;;;;5035279;27;98613;-71
2022/07/08 09:26:05;;;;;;;6.22;2.28;;;;;;;;;;5031892;27;100262;-72
2022/07/08 09:28:31;;;;;;;6.70;2.15;;;;;;;;;;5043254;27;99241;-72
2022/07/08 09:30:59;;;;;;;6.22;2.08;;;;;;;;;;5028469;27;99646;-71
2022/07/08 09:33:26;;;;;;;5.53;1.88;;;;;;;;;;5033585;27;100611;-71
2022/07/08 09:35:54;;;;;;;6.00;1.90;;;;;;;;;;5030228;27;98568;-71
2022/07/08 09:38:21;;;;;;;7.95;1.85;;;;;;;;;;5031806;27;100179;-71
2022/07/08 09:40:58;;;;;;;7.78;2.10;;;;;;;;;;5028328;27;100178;-71
2022/07/08 09:43:25;;;;;;;7.15;2.22;;;;;;;;;;5027818;27;98627;-71
2022/07/08 09:45:52;;;;;;;6.47;2.15;;;;;;;;;;5030871;27;98932;-72
2022/07/08 09:48:19;;;;;;;8.07;2.30;;;;;;;;;;5034878;27;99114;-72
2022/07/08 09:50:48;;;;;;;8.82;2.55;;;;;;;;;;5035687;27;99128;-72
2022/07/08 09:53:31;;;;;;;11.60;2.90;;;;;;;;;;5027088;28;99953;-71
2022/07/08 09:56:01;;;;;;;6.25;2.40;;;;;;;;;;5036351;27;98582;-72
2022/07/08 09:58:28;;;;;;;5.70;1.90;;;;;;;;;;5028489;27;98784;-71
2022/07/08 10:00:55;;;;;;;4.93;2.03;;;;;;;;;;5043700;27;100346;-72
2022/07/08 10:03:22;;;;;;;7.03;2.20;;;;;;;;;;5044000;27;99055;-71
2022/07/08 10:05:49;;;;;;;4.13;2.25;;;;;;;;;;5039050;27;98983;-73
2022/07/08 10:08:17;;;;;;;8.65;2.28;;;;;;;;;;5031383;27;101037;-73
2022/07/08 10:10:45;;;;;;;8.70;2.00;;;;;;;;;;5031191;27;99935;-73
2022/07/08 10:13:11;;;;;;;8.43;2.67;;;;;;;;;;5032138;27;99196;-73
2022/07/08 10:15:38;;;;;;;4.20;1.92;;;;;;;;;;5031284;27;99100;-73
2022/07/08 10:18:10;;;;;;;8.93;1.83;;;;;;;;;;5029850;27;99793;-73
2022/07/08 10:20:38;;;;;;;6.38;2.20;;;;;;;;;;5035508;27;100587;-71
2022/07/08 10:23:06;;;;;;;7.82;2.25;;;;;;;;;;5034582;27;98946;-71
2022/07/08 10:25:33;;;;;;;9.52;1.83;;;;;;;;;;5031257;27;100149;-72
2022/07/08 10:28:05;;;;;;;12.73;2.17;;;;;;;;;;5033160;27;99466;-72
2022/07/08 10:30:46;;;;;;;3.72;1.60;;;;;;;;;;5030946;27;99988;-71
2022/07/08 10:33:25;;;;;;;6.38;2.00;;;;;;;;;;5031212;27;100179;-73
2022/07/08 10:36:03;;;;;;;8.02;2.20;;;;;;;;;;5045548;27;97783;-75
2022/07/08 10:38:30;;;;;;;6.43;2.53;;;;;;;;;;5038878;27;99249;-73
2022/07/08 10:40:59;;;;;;;6.07;2.13;;;;;;;;;;5030646;27;100324;-73
2022/07/08 10:43:27;;;;;;;5.20;2.15;;;;;;;;;;5045679;27;99416;-72
2022/07/08 10:46:01;;;;;;;6.57;2.15;;;;;;;;;;5038214;27;98653;-72
2022/07/08 10:48:39;;;;;;;8.45;2.35;;;;;;;;;;5036171;27;99488;-73
2022/07/08 10:51:17;;;;;;;8.20;2.22;;;;;;;;;;5041517;27;98582;-74
2022/07/08 10:54:05;;;;;;;7.82;2.05;;;;;;;;;;5034835;27;100233;-73
2022/07/08 10:56:48;;;;;;;4.72;2.20;;;;;;;;;;5034496;27;98645;-73
2022/07/08 10:59:16;;;;;;;10.82;2.60;;;;;;;;;;5031610;27;100216;-73
2022/07/08 11:01:44;;;;;;;5.20;1.92;;;;;;;;;;5032869;27;99476;-73
2022/07/08 11:04:29;;;;;;;10.32;2.15;;;;;;;;;;5033037;27;99568;-73
2022/07/08 11:07:16;;;;;;;5.88;2.22;;;;;;;;;;5029083;27;99288;-73
2022/07/08 11:09:43;;;;;;;7.10;2.25;;;;;;;;;;5014825;27;100853;-72
2022/07/08 11:12:11;;;;;;;6.32;2.20;;;;;;;;;;5031547;27;99266;-71
2022/07/08 11:14:41;;;;;;;8.57;1.92;;;;;;;;;;5036730;27;100364;-71
2022/07/08 11:17:20;;;;;;;7.20;2.00;;;;;;;;;;5030269;27;99865;-71
2022/07/08 11:19:47;;;;;;;10.45;2.15;;;;;;;;;;5029339;27;100041;-71
2022/07/08 11:22:13;;;;;;;9.43;2.28;;;;;;;;;;5030634;27;100189;-70
2022/07/08 11:24:51;;;;;;;5.70;2.45;;;;;;;;;;5035090;27;98905;-70
2022/07/08 11:27:23;;;;;;;8.18;2.50;;;;;;;;;;5037774;27;99138;-71
2022/07/08 11:29:54;;;;;;;4.28;1.90;;;;;;;;;;5040800;27;100201;-74
2022/07/08 11:32:21;;;;;;;13.63;2.45;;;;;;;;;;5031145;27;99300;-73
2022/07/08 11:34:48;;;;;;;7.50;2.05;;;;;;;;;;5034132;27;99924;-71
2022/07/08 11:37:15;;;;;;;4.22;2.00;;;;;;;;;;5039821;27;100188;-72
2022/07/08 11:39:42;;;;;;;2.85;1.33;;;;;;;;;;5041949;27;100015;-71
2022/07/08 11:42:09;;;;;;;6.40;1.67;;;;;;;;;;5044397;27;99514;-72
2022/07/08 11:44:36;;;;;;;2.45;1.80;;;;;;;;;;5017820;27;100295;-72
2022/07/08 11:47:03;;;;;;;4.82;1.70;;;;;;;;;;5033837;27;99885;-71
2022/07/08 11:49:31;;;;;;;6.00;1.95;;;;;;;;;;5035188;27;99808;-72
2022/07/08 11:51:58;;;;;;;6.38;1.52;;;;;;;;;;5031686;27;97867;-72
2022/07/08 11:54:26;;;;;;;3.10;1.30;;;;;;;;;;5036393;27;99559;-72
2022/07/08 11:56:56;;;;;;;5.18;1.55;;;;;;;;;;5030522;27;101183;-72
2022/07/08 11:59:25;;;;;;;4.82;1.70;;;;;;;;;;5036629;27;101828;-72
2022/07/08 12:01:52;;;;;;;6.40;1.80;;;;;;;;;;5031719;27;100065;-71
2022/07/08 12:04:19;;;;;;;3.47;1.48;;;;;;;;;;5033835;27;100243;-72
2022/07/08 12:06:49;;;;;;;4.07;1.73;;;;;;;;;;5034016;27;100158;-72
2022/07/08 12:09:20;;;;;;;3.42;1.65;;;;;;;;;;5031388;27;99765;-72
2022/07/08 12:11:51;;;;;;;3.58;1.25;;;;;;;;;;5032289;27;98518;-72
2022/07/08 12:14:18;;;;;;;5.65;1.55;;;;;;;;;;5034216;27;99111;-73
2022/07/08 12:16:46;;;;;;;6.38;1.80;;;;;;;;;;5021600;27;98769;-72
2022/07/08 12:19:26;;;;;;;6.20;1.50;;;;;;;;;;5041033;27;98680;-72
2022/07/08 12:21:53;;;;;;;6.43;1.33;;;;;;;;;;5036143;27;99264;-72
2022/07/08 12:24:32;;;;;;;6.68;1.70;;;;;;;;;;5043401;27;99367;-72
2022/07/08 12:27:00;;;;;;;3.88;1.35;;;;;;;;;;5037297;27;99912;-72
2022/07/08 12:29:31;;;;;;;4.10;1.98;;;;;;;;;;5036230;27;100707;-72
2022/07/08 12:32:04;;;;;;;2.65;1.33;;;;;;;;;;5012122;27;98982;-72
2022/07/08 12:34:31;;;;;;;4.25;1.45;;;;;;;;;;5029529;27;100240;-72
2022/07/08 12:37:13;;;;;;;3.95;1.60;;;;;;;;;;5036990;27;100262;-72
2022/07/08 12:39:40;;;;;;;6.72;1.63;;;;;;;;;;5028561;27;98577;-72
2022/07/08 12:42:22;;;;;;;3.05;1.35;;;;;;;;;;5035197;27;99166;-73
2022/07/08 12:44:49;;;;;;;5.10;1.55;;;;;;;;;;5031602;27;98600;-72
2022/07/08 12:47:15;;;;;;;5.25;1.30;;;;;;;;;;5029118;27;99256;-72
2022/07/08 12:49:43;;;;;;;4.47;1.45;;;;;;;;;;5028463;27;100834;-72
2022/07/08 12:52:10;;;;;;;4.88;1.88;;;;;;;;;;5028655;27;99017;-73
2022/07/08 12:54:37;;;;;;;9.23;2.33;;;;;;;;;;5029514;27;100016;-74
2022/07/08 12:57:04;;;;;;;3.03;1.20;;;;;;;;;;5036557;27;100255;-72
2022/07/08 12:59:31;;;;;;;4.07;1.70;;;;;;;;;;5028594;27;100101;-72
2022/07/08 13:01:58;;;;;;;5.40;1.73;;;;;;;;;;5029148;27;99920;-72
2022/07/08 13:04:25;;;;;;;4.78;2.25;;;;;;;;;;5031095;27;99361;-72
2022/07/08 13:06:55;;;;;;;5.43;1.88;;;;;;;;;;5028813;27;100178;-72
2022/07/08 13:09:22;;;;;;;4.78;1.55;;;;;;;;;;5029063;27;99504;-73
2022/07/08 13:11:51;;;;;;;7.57;1.60;;;;;;;;;;5028564;27;100324;-72
2022/07/08 13:14:18;;;;;;;5.28;1.40;;;;;;;;;;5026905;27;99260;-73
2022/07/08 13:16:44;;;;;;;4.32;1.70;;;;;;;;;;5032968;27;99691;-73
2022/07/08 13:19:11;;;;;;;8.88;1.83;;;;;;;;;;5029715;27;99395;-74
2022/07/08 13:21:38;;;;;;;6.70;2.17;;;;;;;;;;5027778;27;99628;-72
2022/07/08 13:24:04;;;;;;;6.75;1.60;;;;;;;;;;5027867;27;99488;-72
2022/07/08 13:26:32;;;;;;;2.05;1.75;;;;;;;;;;5031191;27;98950;-72
2022/07/08 13:28:58;;;;;;;4.00;1.35;;;;;;;;;;5028611;27;100250;-72
2022/07/08 13:31:24;;;;;;;5.05;1.80;;;;;;;;;;5031361;27;99491;-72
2022/07/08 13:33:53;;;;;;;5.80;1.80;;;;;;;;;;5032498;27;101436;-72
2022/07/08 13:36:20;;;;;;;4.82;1.50;;;;;;;;;;5027878;27;99437;-72
2022/07/08 13:38:47;;;;;;;5.03;1.95;;;;;;;;;;5028301;27;99266;-73
2022/07/08 13:41:13;;;;;;;6.95;2.10;;;;;;;;;;5029455;27;100670;-72
2022/07/08 13:43:40;;;;;;;6.60;1.98;;;;;;;;;;5030966;27;100291;-72
2022/07/08 13:46:06;;;;;;;4.80;2.00;;;;;;;;;;5031565;27;98578;-72
2022/07/08 13:48:33;;;;;;;7.95;2.20;;;;;;;;;;5034552;27;100088;-72
2022/07/08 13:51:00;;;;;;;4.93;1.73;;;;;;;;;;5032141;27;98677;-72
2022/07/08 13:53:26;;;;;;;6.22;2.15;;;;;;;;;;5031999;27;100429;-72
2022/07/08 13:55:53;;;;;;;5.07;1.70;;;;;;;;;;5036395;27;99395;-72
2022/07/08 13:58:20;;;;;;;5.43;1.70;;;;;;;;;;5034002;27;98669;-72
2022/07/08 14:00:46;;;;;;;10.55;1.98;;;;;;;;;;5039556;27;100566;-72
2022/07/08 14:03:13;;;;;;;7.43;2.33;;;;;;;;;;5030062;27;100922;-72
2022/07/08 14:05:39;;;;;;;7.28;2.13;;;;;;;;;;5042494;27;99157;-72
2022/07/08 14:08:06;;;;;;;10.13;2.20;;;;;;;;;;5035726;27;99139;-72
2022/07/08 14:10:52;;;;;;;7.00;2.60;;;;;;;;;;5038801;27;100428;-72
2022/07/08 14:13:18;;;;;;;8.77;2.33;;;;;;;;;;5050393;27;99252;-72
2022/07/08 14:15:45;;;;;;;17.58;2.35;;;;;;;;;;5030435;27;100353;-72
2022/07/08 14:18:11;;;;;;;9.05;2.35;;;;;;;;;;5038613;27;98647;-72
2022/07/08 14:20:38;;;;;;;3.83;2.00;;;;;;;;;;5034637;27;99826;-72
2022/07/08 14:23:04;;;;;;;4.90;1.65;;;;;;;;;;5036420;27;100313;-72
2022/07/08 14:25:30;;;;;;;4.25;2.33;;;;;;;;;;5031069;27;98488;-72
2022/07/08 14:27:57;;;;;;;11.60;2.72;;;;;;;;;;5030555;27;100150;-72
2022/07/08 14:30:23;;;;;;;8.10;2.05;;;;;;;;;;5035016;27;100491;-72
2022/07/08 14:32:49;;;;;;;7.82;2.40;;;;;;;;;;5031558;27;100200;-72
2022/07/08 14:35:16;;;;;;;7.70;2.28;;;;;;;;;;5030873;27;100327;-72
2022/07/08 14:37:42;;;;;;;11.25;2.10;;;;;;;;;;5029542;27;100056;-72